createdAt,value
2019-03-22T00:00:56.420Z,43.97
2019-03-22T00:03:28.678Z,49.10
2019-03-22T00:06:01.039Z,48.30
2019-03-22T00:09:15.011Z,48.27
2019-03-22T00:11:47.957Z,42.57
2019-03-22T00:14:20.258Z,48.13
2019-03-22T00:16:53.704Z,48.13
2019-03-22T00:19:26.035Z,47.57
2019-03-22T00:21:59.310Z,47.80
2019-03-22T00:24:31.651Z,48.97
2019-03-22T00:27:16.461Z,50.57
2019-03-22T00:29:41.773Z,50.83
2019-03-22T00:32:14.044Z,51.27
2019-03-22T00:34:46.878Z,56.07
2019-03-22T00:37:24.506Z,46.83
2019-03-22T00:39:58.708Z,46.40
2019-03-22T00:42:31.204Z,48.90
2019-03-22T00:45:03.734Z,50.73
2019-03-22T00:47:38.941Z,52.93
2019-03-22T00:50:12.318Z,56.43
2019-03-22T00:52:44.894Z,58.23
2019-03-22T00:55:17.507Z,52.87
2019-03-22T00:57:51.312Z,53.30
2019-03-22T01:00:24.349Z,51.77
2019-03-22T01:03:00.096Z,49.57
2019-03-22T01:05:32.667Z,58.60
2019-03-22T01:08:05.239Z,54.63
2019-03-22T01:10:37.783Z,54.53
2019-03-22T01:13:10.022Z,56.60
2019-03-22T01:15:42.372Z,57.27
2019-03-22T01:18:14.631Z,64.67
2019-03-22T01:20:46.914Z,54.33
2019-03-22T01:23:19.181Z,52.43
2019-03-22T01:25:51.443Z,52.73
2019-03-22T01:28:23.654Z,54.60
2019-03-22T01:30:55.910Z,57.53
2019-03-22T01:33:28.159Z,59.33
2019-03-22T01:36:00.774Z,63.97
2019-03-22T01:38:33.213Z,60.63
2019-03-22T01:41:05.484Z,62.83
2019-03-22T01:43:37.808Z,66.93
2019-03-22T01:46:10.085Z,78.63
2019-03-22T01:48:42.393Z,64.83
2019-03-22T01:51:14.766Z,75.43
2019-03-22T01:53:47.103Z,71.70
2019-03-22T01:56:19.401Z,75.00
2019-03-22T01:58:51.693Z,76.57
2019-03-22T02:01:23.961Z,72.43
2019-03-22T02:03:56.248Z,78.90
2019-03-22T02:06:28.570Z,69.93
2019-03-22T02:09:00.821Z,68.67
2019-03-22T02:11:33.658Z,69.03
2019-03-22T02:14:06.031Z,78.27
2019-03-22T02:16:38.371Z,72.90
2019-03-22T02:19:11.195Z,66.03
2019-03-22T02:21:45.571Z,67.80
2019-03-22T02:24:17.803Z,71.30
2019-03-22T02:26:50.097Z,66.70
2019-03-22T02:29:22.353Z,66.10
2019-03-22T02:31:54.665Z,66.33
2019-03-22T02:34:26.895Z,66.73
2019-03-22T02:37:00.271Z,75.00
2019-03-22T02:39:32.693Z,64.20
2019-03-22T02:42:05.303Z,66.60
2019-03-22T02:44:37.578Z,68.53
2019-03-22T02:47:09.849Z,66.67
2019-03-22T02:49:42.132Z,70.10
2019-03-22T02:52:14.385Z,73.63
2019-03-22T02:54:46.699Z,70.10
2019-03-22T02:57:19.003Z,74.37
2019-03-22T02:59:51.234Z,70.70
2019-03-22T03:02:23.500Z,69.17
2019-03-22T03:04:55.797Z,79.50
2019-03-22T03:07:28.081Z,71.30
2019-03-22T03:10:00.411Z,79.00
2019-03-22T03:12:32.738Z,81.47
2019-03-22T03:15:06.064Z,79.10
2019-03-22T03:17:38.527Z,71.87
2019-03-22T03:20:11.991Z,69.33
2019-03-22T03:22:44.274Z,76.80
2019-03-22T03:25:18.737Z,76.77
2019-03-22T03:27:51.031Z,66.10
2019-03-22T03:30:24.952Z,69.47
2019-03-22T03:32:57.216Z,70.93
2019-03-22T03:35:29.551Z,73.97
2019-03-22T03:38:01.826Z,69.10
2019-03-22T03:40:34.088Z,64.50
2019-03-22T03:43:07.359Z,73.97
2019-03-22T03:45:39.753Z,68.60
2019-03-22T03:48:12.150Z,61.73
2019-03-22T03:50:44.386Z,68.83
2019-03-22T03:53:16.739Z,70.63
2019-03-22T03:55:48.964Z,79.93
2019-03-22T03:58:21.259Z,68.00
2019-03-22T04:00:53.658Z,71.07
2019-03-22T04:03:25.931Z,73.87
2019-03-22T04:05:58.246Z,70.83
2019-03-22T04:08:30.528Z,75.53
2019-03-22T04:11:02.759Z,82.33
2019-03-22T04:13:35.064Z,77.83
2019-03-22T04:16:07.344Z,73.67
2019-03-22T04:18:39.738Z,79.27
2019-03-22T04:21:11.985Z,81.67
2019-03-22T04:23:44.272Z,79.53
2019-03-22T04:26:16.564Z,76.43
2019-03-22T04:28:48.874Z,77.83
2019-03-22T04:31:21.306Z,80.63
2019-03-22T04:33:53.871Z,91.10
2019-03-22T04:36:26.151Z,84.57
2019-03-22T04:38:58.636Z,86.20
2019-03-22T04:41:30.907Z,92.23
2019-03-22T04:44:03.208Z,80.67
2019-03-22T04:46:37.030Z,83.53
2019-03-22T04:49:10.800Z,83.10
2019-03-22T04:51:44.278Z,77.87
2019-03-22T04:54:20.099Z,95.27
2019-03-22T04:56:54.960Z,85.67
2019-03-22T04:59:28.041Z,86.47
2019-03-22T05:02:03.391Z,89.93
2019-03-22T05:04:39.189Z,90.27
2019-03-22T05:07:11.838Z,89.60
2019-03-22T05:09:45.919Z,87.33
2019-03-22T05:12:21.456Z,92.73
2019-03-22T05:14:57.151Z,90.97
2019-03-22T05:17:32.458Z,102.47
2019-03-22T05:20:07.045Z,85.77
2019-03-22T05:22:41.445Z,100.67
2019-03-22T05:25:15.960Z,85.70
2019-03-22T05:27:51.211Z,98.23
2019-03-22T05:31:36.864Z,101.00
2019-03-22T05:34:09.308Z,82.90
2019-03-22T05:36:42.562Z,88.97
2019-03-22T05:39:14.864Z,75.07
2019-03-22T05:41:47.187Z,88.33
2019-03-22T05:44:19.470Z,94.00
2019-03-22T05:46:51.739Z,94.37
2019-03-22T05:49:24.038Z,95.13
2019-03-22T05:51:56.427Z,92.37
2019-03-22T05:54:28.645Z,90.73
2019-03-22T05:57:01.040Z,92.37
2019-03-22T05:59:41.919Z,84.10
2019-03-22T06:02:07.394Z,82.67
2019-03-22T06:04:39.730Z,91.00
2019-03-22T06:07:12.147Z,93.70
2019-03-22T06:09:44.438Z,89.67
2019-03-22T06:12:16.826Z,96.07
2019-03-22T06:14:49.118Z,103.67
2019-03-22T06:17:21.425Z,96.93
2019-03-22T06:19:53.645Z,99.20
2019-03-22T06:22:25.933Z,87.97
2019-03-22T06:24:58.284Z,83.70
2019-03-22T06:27:30.665Z,100.77
2019-03-22T06:30:02.952Z,81.27
2019-03-22T06:32:36.325Z,92.40
2019-03-22T06:35:08.772Z,91.67
2019-03-22T06:37:42.682Z,85.13
2019-03-22T06:40:15.191Z,85.50
2019-03-22T06:42:47.513Z,93.20
2019-03-22T06:45:19.783Z,89.87
2019-03-22T06:47:52.076Z,100.03
2019-03-22T06:50:24.401Z,89.83
2019-03-22T06:52:56.744Z,105.20
2019-03-22T06:55:29.023Z,98.63
2019-03-22T06:58:01.378Z,102.40
2019-03-22T07:00:33.697Z,101.80
2019-03-22T07:03:05.984Z,99.27
2019-03-22T07:05:38.211Z,101.53
2019-03-22T07:08:10.531Z,102.93
2019-03-22T07:10:42.774Z,97.80
2019-03-22T07:13:34.157Z,91.97
2019-03-22T07:16:06.427Z,105.30
2019-03-22T07:18:38.755Z,86.33
2019-03-22T07:21:10.993Z,94.27
2019-03-22T07:23:43.321Z,95.73
2019-03-22T07:26:15.539Z,92.67
2019-03-22T07:28:47.771Z,78.67
2019-03-22T07:31:19.967Z,85.73
2019-03-22T07:33:52.265Z,96.17
2019-03-22T07:36:25.459Z,95.03
2019-03-22T07:38:57.677Z,86.47
2019-03-22T07:41:29.913Z,90.47
2019-03-22T07:44:02.172Z,80.67
2019-03-22T07:46:34.413Z,86.10
2019-03-22T07:49:06.835Z,84.57
2019-03-22T07:51:39.127Z,92.27
2019-03-22T07:54:11.375Z,87.83
2019-03-22T07:56:43.593Z,83.10
2019-03-22T07:59:15.929Z,88.50
2019-03-22T08:01:48.276Z,82.77
2019-03-22T08:04:20.583Z,82.47
2019-03-22T08:06:52.812Z,89.33
2019-03-22T08:09:26.124Z,86.03
2019-03-22T08:11:58.347Z,92.10
2019-03-22T08:14:30.629Z,82.50
2019-03-22T08:17:02.879Z,92.70
2019-03-22T08:19:35.174Z,89.33
2019-03-22T08:22:07.401Z,94.33
2019-03-22T08:24:39.630Z,79.13
2019-03-22T08:27:12.040Z,87.80
2019-03-22T08:29:44.356Z,81.93
2019-03-22T08:32:16.722Z,77.17
2019-03-22T08:34:49.131Z,86.40
2019-03-22T08:38:49.537Z,80.33
2019-03-22T08:54:08.818Z,77.13
2019-03-22T09:00:22.544Z,72.30
2019-03-22T09:02:54.796Z,67.97
2019-03-22T09:05:27.149Z,81.50
2019-03-22T09:07:59.591Z,84.30
2019-03-22T09:10:31.818Z,69.03
2019-03-22T09:13:04.243Z,72.03
2019-03-22T09:15:41.223Z,58.60
2019-03-22T09:18:10.576Z,76.87
2019-03-22T09:20:42.918Z,68.80
2019-03-22T09:23:15.376Z,64.47
2019-03-22T09:25:47.856Z,77.33
2019-03-22T09:28:20.220Z,59.03
2019-03-22T09:30:52.558Z,63.83
2019-03-22T09:42:54.486Z,66.40
2019-03-22T09:45:26.803Z,60.20
2019-03-22T09:47:59.024Z,74.13
2019-03-22T09:50:31.229Z,69.97
2019-03-22T09:53:03.477Z,65.30
2019-03-22T09:55:35.799Z,68.20
2019-03-22T09:58:08.216Z,68.43
2019-03-22T10:00:40.388Z,71.87
2019-03-22T10:03:12.659Z,73.77
2019-03-22T10:05:45.056Z,65.57
2019-03-22T10:08:17.452Z,68.37
2019-03-22T10:10:49.783Z,66.63
2019-03-22T10:13:22.148Z,67.17
2019-03-22T10:15:54.570Z,67.63
2019-03-22T10:18:26.869Z,72.40
2019-03-22T10:20:59.195Z,72.33
2019-03-22T10:23:31.507Z,79.63
2019-03-22T10:26:06.126Z,77.73
2019-03-22T10:28:38.549Z,69.97
2019-03-22T10:31:10.819Z,63.70
2019-03-22T10:33:43.124Z,66.37
2019-03-22T10:36:15.344Z,68.37
2019-03-22T10:38:50.347Z,64.43
2019-03-22T10:41:21.690Z,68.87
2019-03-22T10:43:54.265Z,79.83
2019-03-22T10:46:26.500Z,76.27
2019-03-22T10:48:58.878Z,78.03
2019-03-22T10:51:31.143Z,78.00
2019-03-22T10:54:03.422Z,76.00
2019-03-22T10:56:35.632Z,84.60
2019-03-22T10:59:07.880Z,83.37
2019-03-22T11:01:48.594Z,74.93
2019-03-22T11:04:14.147Z,77.30
2019-03-22T11:06:46.375Z,72.33
2019-03-22T11:09:19.606Z,79.87
2019-03-22T11:11:51.906Z,77.27
2019-03-22T11:14:24.647Z,78.77
2019-03-22T11:16:56.891Z,75.17
2019-03-22T11:19:29.194Z,78.37
2019-03-22T11:22:01.470Z,74.53
2019-03-22T11:24:33.755Z,72.90
2019-03-22T11:27:06.278Z,64.27
2019-03-22T11:29:38.584Z,64.27
2019-03-22T11:32:12.809Z,62.73
2019-03-22T11:34:45.730Z,74.20
2019-03-22T11:37:18.183Z,73.27
2019-03-22T11:39:50.707Z,66.97
2019-03-22T11:42:22.900Z,68.27
2019-03-22T11:44:55.248Z,71.07
2019-03-22T11:47:27.506Z,61.63
2019-03-22T11:49:59.784Z,69.60
2019-03-22T11:52:32.571Z,71.40
2019-03-22T11:55:08.028Z,67.00
2019-03-22T11:57:40.329Z,63.33
2019-03-22T12:00:18.359Z,71.90
2019-03-22T12:02:50.980Z,68.47
2019-03-22T12:05:24.362Z,65.97
2019-03-22T12:07:58.425Z,71.63
2019-03-22T12:10:30.701Z,65.37
2019-03-22T12:13:03.358Z,61.60
2019-03-22T12:15:35.790Z,59.73
2019-03-22T12:18:08.277Z,69.90
2019-03-22T12:20:46.927Z,64.00
2019-03-22T12:23:19.358Z,64.80
2019-03-22T12:25:51.978Z,61.70
2019-03-22T12:28:24.449Z,66.50
2019-03-22T12:30:58.220Z,72.57
2019-03-22T12:33:30.821Z,66.97
2019-03-22T12:36:03.124Z,69.50
2019-03-22T12:38:35.489Z,67.63
2019-03-22T12:41:07.919Z,71.67
2019-03-22T12:43:40.265Z,73.70
2019-03-22T12:46:12.798Z,70.20
2019-03-22T12:48:45.139Z,65.17
2019-03-22T12:51:17.496Z,76.87
2019-03-22T12:53:50.010Z,70.60
2019-03-22T12:56:22.412Z,73.53
2019-03-22T12:58:54.658Z,72.03
2019-03-22T13:01:27.027Z,75.93
2019-03-22T13:03:59.344Z,80.27
2019-03-22T13:06:31.769Z,63.40
2019-03-22T13:09:06.267Z,78.07
2019-03-22T13:11:38.625Z,74.40
2019-03-22T13:14:10.939Z,76.67
2019-03-22T13:16:43.359Z,68.87
2019-03-22T13:19:15.713Z,70.00
2019-03-22T13:21:48.210Z,72.90
2019-03-22T13:24:20.532Z,70.20
2019-03-22T13:26:52.918Z,74.37
2019-03-22T13:29:25.193Z,72.77
2019-03-22T13:31:57.596Z,70.80
2019-03-22T13:34:29.882Z,68.20
2019-03-22T13:37:02.262Z,68.50
2019-03-22T13:39:34.571Z,76.40
2019-03-22T13:42:06.890Z,80.40
2019-03-22T13:44:39.243Z,70.70
2019-03-22T13:47:11.567Z,78.93
2019-03-22T13:49:43.960Z,65.70
2019-03-22T13:52:16.303Z,76.00
2019-03-22T13:54:48.624Z,67.90
2019-03-22T13:57:20.955Z,69.30
2019-03-22T13:59:53.573Z,70.87
2019-03-22T14:02:25.976Z,74.00
2019-03-22T14:04:58.216Z,75.53
2019-03-22T14:07:30.514Z,74.40
2019-03-22T14:10:03.031Z,70.93
2019-03-22T14:12:37.224Z,74.80
2019-03-22T14:15:10.531Z,65.87
2019-03-22T14:17:43.019Z,65.97
2019-03-22T14:20:15.257Z,79.47
2019-03-22T14:22:48.067Z,70.87
2019-03-22T14:25:20.695Z,75.30
2019-03-22T14:27:53.610Z,66.30
2019-03-22T14:30:25.852Z,69.60
2019-03-22T14:32:58.367Z,70.43
2019-03-22T14:35:31.220Z,67.23
2019-03-22T14:38:03.630Z,75.63
2019-03-22T14:40:35.935Z,66.17
2019-03-22T14:43:08.212Z,68.80
2019-03-22T14:45:40.565Z,63.60
2019-03-22T14:48:13.023Z,76.37
2019-03-22T14:50:46.429Z,63.47
2019-03-22T14:53:18.717Z,60.20
2019-03-22T14:55:51.152Z,66.90
2019-03-22T14:58:23.519Z,70.57
2019-03-22T15:00:55.813Z,66.93
2019-03-22T15:03:28.679Z,61.60
2019-03-22T15:06:01.047Z,67.03
2019-03-22T15:08:33.412Z,68.07
2019-03-22T15:11:05.700Z,72.93
2019-03-22T15:13:46.769Z,67.83
2019-03-22T15:16:44.098Z,69.70
2019-03-22T15:19:32.995Z,69.43
2019-03-22T15:22:23.103Z,62.53
2019-03-22T15:25:14.550Z,64.60
2019-03-22T15:28:04.728Z,63.33
2019-03-22T15:30:54.830Z,61.87
2019-03-22T15:33:47.533Z,64.03
2019-03-22T15:36:38.787Z,81.40
2019-03-22T15:39:29.340Z,64.10
2019-03-22T15:42:02.124Z,61.40
2019-03-22T15:44:34.412Z,64.23
2019-03-22T15:47:06.878Z,65.30
2019-03-22T15:49:39.380Z,67.13
2019-03-22T15:52:11.834Z,65.00
2019-03-22T15:54:44.224Z,70.70
2019-03-22T15:57:16.805Z,64.67
2019-03-22T15:59:49.161Z,74.30
2019-03-22T16:02:21.648Z,66.67
2019-03-22T16:04:54.018Z,66.87
2019-03-22T16:07:26.405Z,68.27
2019-03-22T16:09:58.837Z,63.23
2019-03-22T16:12:31.200Z,75.00
2019-03-22T16:15:03.566Z,60.83
2019-03-22T16:17:35.936Z,72.03
2019-03-22T16:20:09.518Z,72.63
2019-03-22T16:22:41.857Z,68.90
2019-03-22T16:25:14.637Z,73.70
2019-03-22T16:27:47.028Z,69.20
2019-03-22T16:30:19.899Z,66.47
2019-03-22T16:32:52.172Z,69.10
2019-03-22T16:35:24.454Z,71.23
2019-03-22T16:37:56.723Z,69.17
2019-03-22T16:40:29.032Z,75.90
2019-03-22T16:43:01.398Z,70.90
2019-03-22T16:45:46.009Z,67.80
2019-03-22T16:48:18.349Z,69.87
2019-03-22T16:50:50.838Z,76.20
2019-03-22T16:53:23.165Z,71.80
2019-03-22T16:55:55.691Z,87.03
2019-03-22T16:58:27.970Z,69.30
2019-03-22T17:01:00.320Z,78.83
2019-03-22T17:03:32.894Z,72.90
2019-03-22T17:06:05.343Z,70.90
2019-03-22T17:08:37.634Z,67.27
2019-03-22T17:11:09.900Z,72.57
2019-03-22T17:13:42.384Z,78.10
2019-03-22T17:16:14.722Z,76.23
2019-03-22T17:18:47.126Z,87.77
2019-03-22T17:21:19.447Z,72.50
2019-03-22T17:23:51.783Z,75.67
2019-03-22T17:26:24.133Z,76.27
2019-03-22T17:28:56.446Z,71.20
2019-03-22T17:31:28.770Z,80.90
2019-03-22T17:34:01.092Z,76.57
2019-03-22T17:36:34.708Z,74.40
2019-03-22T17:39:08.936Z,75.37
2019-03-22T17:41:41.380Z,68.70
2019-03-22T17:44:13.696Z,81.93
2019-03-22T17:46:46.007Z,73.37
2019-03-22T17:49:18.388Z,81.23
2019-03-22T17:51:50.841Z,85.53
2019-03-22T17:54:23.147Z,74.50
2019-03-22T17:56:55.461Z,75.00
2019-03-22T17:59:27.737Z,74.27
2019-03-22T18:02:00.251Z,73.57
2019-03-22T18:04:33.882Z,79.37
2019-03-22T18:07:06.173Z,81.73
2019-03-22T18:09:38.588Z,82.07
2019-03-22T18:12:10.999Z,78.87
2019-03-22T18:14:43.364Z,77.93
2019-03-22T18:17:15.727Z,73.57
2019-03-22T18:19:48.067Z,78.53
2019-03-22T18:22:20.545Z,79.00
2019-03-22T18:24:53.003Z,86.40
2019-03-22T18:27:26.388Z,77.30
2019-03-22T18:29:58.787Z,92.40
2019-03-22T18:32:31.193Z,80.37
2019-03-22T18:35:03.582Z,84.70
2019-03-22T18:37:37.496Z,90.93
2019-03-22T18:40:10.180Z,89.20
2019-03-22T18:42:42.588Z,87.73
2019-03-22T18:45:15.309Z,86.27
2019-03-22T18:47:47.840Z,99.23
2019-03-22T18:50:20.956Z,96.20
2019-03-22T18:53:03.691Z,81.03
2019-03-22T18:55:35.988Z,83.13
2019-03-22T18:58:08.350Z,97.37
2019-03-22T19:00:40.754Z,96.53
2019-03-22T19:03:13.104Z,97.40
2019-03-22T19:05:45.540Z,95.40
2019-03-22T19:08:17.956Z,82.33
2019-03-22T19:10:50.322Z,91.83
2019-03-22T19:13:30.406Z,106.60
2019-03-22T19:15:56.891Z,91.70
2019-03-22T19:18:30.240Z,94.80
2019-03-22T19:21:02.501Z,105.13
2019-03-22T19:23:34.800Z,105.03
2019-03-22T19:26:07.053Z,96.70
2019-03-22T19:28:39.342Z,97.60
2019-03-22T19:31:11.567Z,100.77
2019-03-22T19:33:44.110Z,95.00
2019-03-22T19:36:16.443Z,103.20
2019-03-22T19:38:48.718Z,97.37
2019-03-22T19:41:21.129Z,105.80
2019-03-22T19:43:53.497Z,100.73
2019-03-22T19:46:25.926Z,99.17
2019-03-22T19:48:58.212Z,93.60
2019-03-22T19:51:30.482Z,101.10
2019-03-22T19:54:02.842Z,103.53
2019-03-22T19:56:35.191Z,98.50
2019-03-22T19:59:07.541Z,103.27
2019-03-22T20:01:39.802Z,95.27
2019-03-22T20:04:12.233Z,99.60
2019-03-22T20:06:45.546Z,103.17
2019-03-22T20:09:17.926Z,104.43
2019-03-22T20:11:51.766Z,114.30
2019-03-22T20:14:24.032Z,93.50
2019-03-22T20:16:56.373Z,105.07
2019-03-22T20:19:28.675Z,101.90
2019-03-22T20:22:00.977Z,112.13
2019-03-22T20:24:33.310Z,103.60
2019-03-22T20:27:05.578Z,110.47
2019-03-22T20:29:40.013Z,116.20
2019-03-22T20:32:11.964Z,113.63
2019-03-22T20:34:44.232Z,110.60
2019-03-22T20:37:16.483Z,107.57
2019-03-22T20:39:48.831Z,108.83
2019-03-22T20:42:21.263Z,107.50
2019-03-22T20:44:53.718Z,105.43
2019-03-22T20:47:26.101Z,122.83
2019-03-22T20:49:58.538Z,116.07
2019-03-22T20:52:30.835Z,120.93
2019-03-22T20:55:03.154Z,109.93
2019-03-22T20:57:36.549Z,104.40
2019-03-22T21:00:09.491Z,121.07
2019-03-22T21:02:41.941Z,121.80
2019-03-22T21:05:14.287Z,114.47
2019-03-22T21:07:46.648Z,111.70
2019-03-22T21:10:19.006Z,111.80
2019-03-22T21:12:51.336Z,127.23
2019-03-22T21:15:24.819Z,122.50
2019-03-22T21:17:57.351Z,126.77
2019-03-22T21:20:29.680Z,120.37
2019-03-22T21:23:02.037Z,121.57
2019-03-22T21:25:35.875Z,121.57
2019-03-22T21:28:08.188Z,111.50
2019-03-22T21:30:41.338Z,128.47
2019-03-22T21:33:13.778Z,134.67
2019-03-22T21:35:46.135Z,128.07
2019-03-22T21:38:18.481Z,117.57
2019-03-22T21:40:50.694Z,122.53
2019-03-22T21:43:23.016Z,118.47
2019-03-22T21:45:55.305Z,138.33
2019-03-22T21:48:27.579Z,126.93
2019-03-22T21:50:59.889Z,131.57
2019-03-22T21:53:32.201Z,136.87
2019-03-22T21:56:04.562Z,140.80
2019-03-22T21:58:36.949Z,126.80
2019-03-22T22:01:09.266Z,136.33
2019-03-22T22:03:41.710Z,132.73
2019-03-22T22:06:14.032Z,120.33
2019-03-22T22:08:46.406Z,136.30
2019-03-22T22:11:18.728Z,127.30
2019-03-22T22:13:51.066Z,121.60
2019-03-22T22:16:34.509Z,136.23
2019-03-22T22:19:08.113Z,138.23
2019-03-22T22:21:40.612Z,124.13
2019-03-22T22:24:12.857Z,126.27
2019-03-22T22:26:45.167Z,139.37
2019-03-22T22:29:17.422Z,132.27
2019-03-22T22:31:49.666Z,138.13
2019-03-22T22:34:21.905Z,133.47
2019-03-22T22:36:54.166Z,140.87
2019-03-22T22:39:26.433Z,134.00
2019-03-22T22:41:58.830Z,132.13
2019-03-22T22:44:31.259Z,143.87
2019-03-22T22:47:04.597Z,139.33
2019-03-22T22:49:36.918Z,132.13
2019-03-22T22:52:09.366Z,144.00
2019-03-22T22:54:41.657Z,152.50
2019-03-22T22:57:14.100Z,132.07
2019-03-22T22:59:46.402Z,140.10
2019-03-22T23:02:18.846Z,141.97
2019-03-22T23:04:51.148Z,136.20
2019-03-22T23:07:23.498Z,142.50
2019-03-22T23:09:55.810Z,148.27
2019-03-22T23:12:28.082Z,141.47
2019-03-22T23:15:01.982Z,144.90
2019-03-22T23:17:36.034Z,156.87
2019-03-22T23:20:11.679Z,141.57
2019-03-22T23:22:43.992Z,150.73
2019-03-22T23:25:16.276Z,150.60
2019-03-22T23:27:48.692Z,147.63
2019-03-22T23:30:22.023Z,154.83
2019-03-22T23:32:55.071Z,146.17
2019-03-22T23:35:27.377Z,153.50
2019-03-22T23:37:59.681Z,169.43
2019-03-22T23:40:32.181Z,147.70
2019-03-22T23:43:04.444Z,149.67
2019-03-22T23:45:36.729Z,140.27
2019-03-22T23:48:08.981Z,156.77
2019-03-22T23:50:41.247Z,162.70
2019-03-22T23:53:13.500Z,144.60
2019-03-22T23:55:45.745Z,152.17
2019-03-22T23:58:18.052Z,153.83
